RA64535 USTR-USRR
Flight info
| Callsign | RA64535 |
|---|---|
| Flight time | 1h 28m |
| Altitude | 35000 |
| Route | N0440F350 SOLMU R717 BOMLI |
| Aircraft | T204/M-VGDW/C |
Departure
| Time | 2026-04-28 04:45 |
|---|---|
| Airport | Roshchino International Airport (USTR) |
Arrival
| Time | 2026-04-28 06:13 |
|---|---|
| Airport | Surgut International Airport (USRR) |
| Time | Latitude | Longitude | Altitude | Speed | Heading |
|---|---|---|---|---|---|
| 2026-04-28 04:31 | 57.18078 | 65.34797 | 383 ft | 0 kts | 42° |
| 2026-04-28 04:37 | 57.18071 | 65.34784 | 383 ft | 2 kts | 42° |
| 2026-04-28 04:38 | 57.18059 | 65.34766 | 383 ft | 2 kts | 42° |
| 2026-04-28 04:38 | 57.18048 | 65.34747 | 383 ft | 2 kts | 42° |
| 2026-04-28 04:38 | 57.18040 | 65.34724 | 383 ft | 2 kts | 70° |
| 2026-04-28 04:38 | 57.18038 | 65.34699 | 383 ft | 2 kts | 92° |
| 2026-04-28 04:39 | 57.18041 | 65.34673 | 383 ft | 2 kts | 114° |
| 2026-04-28 04:39 | 57.18049 | 65.34652 | 383 ft | 2 kts | 136° |
| 2026-04-28 04:39 | 57.18059 | 65.34634 | 383 ft | 0 kts | 133° |
| 2026-04-28 04:39 | 57.18063 | 65.34628 | 383 ft | 0 kts | 135° |
| 2026-04-28 04:41 | 57.18057 | 65.34638 | 383 ft | 4 kts | 134° |
| 2026-04-28 04:41 | 57.18014 | 65.34689 | 383 ft | 8 kts | 194° |
| 2026-04-28 04:41 | 57.17952 | 65.34605 | 383 ft | 14 kts | 223° |
| 2026-04-28 04:42 | 57.17891 | 65.34434 | 383 ft | 18 kts | 281° |
| 2026-04-28 04:42 | 57.17982 | 65.34227 | 383 ft | 23 kts | 316° |
| 2026-04-28 04:42 | 57.18118 | 65.33995 | 383 ft | 29 kts | 316° |
| 2026-04-28 04:42 | 57.18275 | 65.33695 | 383 ft | 35 kts | 312° |
| 2026-04-28 04:43 | 57.18453 | 65.33340 | 383 ft | 40 kts | 299° |
| 2026-04-28 04:43 | 57.18469 | 65.32809 | 383 ft | 42 kts | 267° |
| 2026-04-28 04:43 | 57.18462 | 65.32288 | 383 ft | 35 kts | 270° |
| 2026-04-28 04:43 | 57.18579 | 65.32001 | 383 ft | 27 kts | 317° |
| 2026-04-28 04:44 | 57.18693 | 65.31744 | 383 ft | 25 kts | 265° |
| 2026-04-28 04:44 | 57.18646 | 65.31596 | 383 ft | 0 kts | 228° |
| 2026-04-28 04:44 | 57.18617 | 65.31537 | 383 ft | 34 kts | 227° |
| 2026-04-28 04:44 | 57.18227 | 65.30745 | 383 ft | 130 kts | 226° |
| 2026-04-28 04:45 | 57.17497 | 65.29240 | 543 ft | 172 kts | 221° |
| 2026-04-28 04:45 | 57.16635 | 65.27464 | 958 ft | 196 kts | 226° |
| 2026-04-28 04:45 | 57.15791 | 65.25652 | 2000 ft | 185 kts | 223° |
| 2026-04-28 04:45 | 57.15033 | 65.23735 | 2728 ft | 196 kts | 240° |
| 2026-04-28 04:46 | 57.15078 | 65.21064 | 3443 ft | 235 kts | 287° |
| 2026-04-28 04:46 | 57.16204 | 65.18928 | 4576 ft | 248 kts | 328° |
| 2026-04-28 04:46 | 57.17873 | 65.18397 | 5563 ft | 256 kts | 7° |
| 2026-04-28 04:46 | 57.19465 | 65.19768 | 6375 ft | 262 kts | 44° |
| 2026-04-28 04:47 | 57.20443 | 65.22645 | 6799 ft | 277 kts | 78° |
| 2026-04-28 04:47 | 57.20839 | 65.26188 | 7439 ft | 289 kts | 83° |
| 2026-04-28 04:47 | 57.21625 | 65.29662 | 8284 ft | 301 kts | 62° |
| 2026-04-28 04:47 | 57.22674 | 65.32938 | 9188 ft | 303 kts | 61° |
| 2026-04-28 04:48 | 57.23761 | 65.36267 | 10049 ft | 306 kts | 60° |
| 2026-04-28 04:48 | 57.24873 | 65.39635 | 10853 ft | 311 kts | 60° |
| 2026-04-28 04:48 | 57.26011 | 65.43063 | 11606 ft | 316 kts | 60° |
| 2026-04-28 04:48 | 57.27162 | 65.46532 | 12395 ft | 319 kts | 60° |
| 2026-04-28 04:49 | 57.28325 | 65.50047 | 13115 ft | 325 kts | 60° |
| 2026-04-28 04:49 | 57.29495 | 65.53586 | 13829 ft | 328 kts | 60° |
| 2026-04-28 04:49 | 57.30686 | 65.57204 | 14542 ft | 332 kts | 60° |
| 2026-04-28 04:49 | 57.31880 | 65.60844 | 15157 ft | 338 kts | 60° |
| 2026-04-28 04:50 | 57.33092 | 65.64552 | 15803 ft | 342 kts | 60° |
| 2026-04-28 04:50 | 57.34335 | 65.68351 | 16433 ft | 346 kts | 61° |
| 2026-04-28 04:50 | 57.35580 | 65.72163 | 17045 ft | 350 kts | 61° |
| 2026-04-28 04:50 | 57.36834 | 65.76024 | 17629 ft | 355 kts | 60° |
| 2026-04-28 04:51 | 57.38096 | 65.79919 | 18220 ft | 358 kts | 60° |
| 2026-04-28 04:51 | 57.39376 | 65.83869 | 18788 ft | 362 kts | 60° |
| 2026-04-28 04:51 | 57.40684 | 65.87899 | 19372 ft | 365 kts | 60° |
| 2026-04-28 04:51 | 57.41988 | 65.91925 | 19912 ft | 369 kts | 60° |
| 2026-04-28 04:52 | 57.43302 | 65.95991 | 20460 ft | 372 kts | 60° |
| 2026-04-28 04:52 | 57.44635 | 66.00112 | 20973 ft | 376 kts | 60° |
| 2026-04-28 04:52 | 57.45976 | 66.04269 | 21541 ft | 378 kts | 60° |
| 2026-04-28 04:52 | 57.47320 | 66.08452 | 22027 ft | 382 kts | 60° |
| 2026-04-28 04:53 | 57.48683 | 66.12693 | 22518 ft | 385 kts | 60° |
| 2026-04-28 04:53 | 57.50047 | 66.16956 | 23054 ft | 387 kts | 60° |
| 2026-04-28 04:53 | 57.51424 | 66.21262 | 23514 ft | 390 kts | 60° |
| 2026-04-28 04:53 | 57.52811 | 66.25619 | 23990 ft | 393 kts | 60° |
| 2026-04-28 04:54 | 57.54202 | 66.30000 | 24479 ft | 395 kts | 60° |
| 2026-04-28 04:54 | 57.55597 | 66.34396 | 24956 ft | 397 kts | 60° |
| 2026-04-28 04:54 | 57.56994 | 66.38806 | 25413 ft | 400 kts | 60° |
| 2026-04-28 04:54 | 57.58395 | 66.43238 | 25878 ft | 401 kts | 60° |
| 2026-04-28 04:55 | 57.59813 | 66.47732 | 26288 ft | 404 kts | 59° |
| 2026-04-28 04:55 | 57.61225 | 66.52214 | 26769 ft | 405 kts | 59° |
| 2026-04-28 04:55 | 57.62640 | 66.56708 | 27301 ft | 404 kts | 59° |
| 2026-04-28 04:55 | 57.64064 | 66.61246 | 27831 ft | 403 kts | 59° |
| 2026-04-28 04:56 | 57.65470 | 66.65741 | 28381 ft | 401 kts | 60° |
| 2026-04-28 04:56 | 57.66859 | 66.70178 | 28859 ft | 401 kts | 60° |
| 2026-04-28 04:56 | 57.68265 | 66.74680 | 29377 ft | 400 kts | 60° |
| 2026-04-28 04:56 | 57.69655 | 66.79144 | 29888 ft | 398 kts | 60° |
| 2026-04-28 04:57 | 57.71028 | 66.83561 | 30357 ft | 398 kts | 60° |
| 2026-04-28 04:57 | 57.72413 | 66.88027 | 30812 ft | 397 kts | 60° |
| 2026-04-28 04:57 | 57.73796 | 66.92505 | 31249 ft | 397 kts | 60° |
| 2026-04-28 04:57 | 57.75165 | 66.96931 | 31682 ft | 396 kts | 60° |
| 2026-04-28 04:58 | 57.76524 | 67.01337 | 32112 ft | 395 kts | 60° |
| 2026-04-28 04:58 | 57.77892 | 67.05772 | 32494 ft | 395 kts | 60° |
| 2026-04-28 04:58 | 57.79264 | 67.10242 | 32926 ft | 394 kts | 60° |
| 2026-04-28 04:58 | 57.80611 | 67.14637 | 33359 ft | 392 kts | 60° |
| 2026-04-28 04:59 | 57.81965 | 67.19076 | 33740 ft | 392 kts | 60° |
| 2026-04-28 04:59 | 57.83313 | 67.23502 | 34110 ft | 392 kts | 59° |
| 2026-04-28 04:59 | 57.84675 | 67.27975 | 34213 ft | 400 kts | 59° |
| 2026-04-28 05:00 | 57.87484 | 67.37234 | 34277 ft | 418 kts | 59° |
| 2026-04-28 05:00 | 57.90412 | 67.46928 | 34364 ft | 435 kts | 59° |
| 2026-04-28 05:01 | 57.93418 | 67.56926 | 34463 ft | 449 kts | 59° |
| 2026-04-28 05:01 | 57.96510 | 67.67258 | 34577 ft | 461 kts | 60° |
| 2026-04-28 05:02 | 57.99677 | 67.77881 | 34635 ft | 473 kts | 60° |
| 2026-04-28 05:02 | 58.01284 | 67.83302 | 34762 ft | 476 kts | 60° |
| 2026-04-28 05:02 | 58.02889 | 67.88728 | 34987 ft | 476 kts | 60° |
| 2026-04-28 05:02 | 58.04504 | 67.94209 | 35184 ft | 478 kts | 60° |
| 2026-04-28 05:03 | 58.06119 | 67.99700 | 35162 ft | 478 kts | 60° |
| 2026-04-28 05:03 | 58.09298 | 68.10565 | 35173 ft | 474 kts | 60° |
| 2026-04-28 05:04 | 58.12465 | 68.21458 | 35172 ft | 473 kts | 59° |
| 2026-04-28 05:04 | 58.14386 | 68.26485 | 35145 ft | 470 kts | 44° |
| 2026-04-28 05:04 | 58.16718 | 68.30718 | 35220 ft | 468 kts | 40° |
| 2026-04-28 05:05 | 58.21605 | 68.38786 | 35178 ft | 467 kts | 37° |
| 2026-04-28 05:05 | 58.26617 | 68.46665 | 35166 ft | 467 kts | 36° |
| 2026-04-28 05:06 | 58.31597 | 68.54414 | 35174 ft | 467 kts | 35° |
| 2026-04-28 05:06 | 58.36634 | 68.62208 | 35176 ft | 467 kts | 35° |
| 2026-04-28 05:07 | 58.41647 | 68.69960 | 35178 ft | 468 kts | 36° |
| 2026-04-28 05:07 | 58.46654 | 68.77889 | 35173 ft | 468 kts | 37° |
| 2026-04-28 05:08 | 58.51595 | 68.85929 | 35177 ft | 467 kts | 37° |
| 2026-04-28 05:08 | 58.56477 | 68.93948 | 35178 ft | 467 kts | 37° |
| 2026-04-28 05:09 | 58.61378 | 69.02000 | 35179 ft | 466 kts | 37° |
| 2026-04-28 05:09 | 58.66293 | 69.10074 | 35181 ft | 465 kts | 37° |
| 2026-04-28 05:10 | 58.71201 | 69.18116 | 35176 ft | 466 kts | 36° |
| 2026-04-28 05:10 | 58.76114 | 69.26177 | 35187 ft | 466 kts | 36° |
| 2026-04-28 05:11 | 58.81039 | 69.34234 | 35185 ft | 467 kts | 36° |
| 2026-04-28 05:11 | 58.85957 | 69.42281 | 35186 ft | 467 kts | 36° |
| 2026-04-28 05:12 | 58.90873 | 69.50313 | 35186 ft | 466 kts | 36° |
| 2026-04-28 05:12 | 58.95815 | 69.58385 | 35189 ft | 466 kts | 36° |
| 2026-04-28 05:13 | 59.00753 | 69.66438 | 35186 ft | 465 kts | 36° |
| 2026-04-28 05:13 | 59.05686 | 69.74464 | 35185 ft | 465 kts | 36° |
| 2026-04-28 05:14 | 59.10605 | 69.82476 | 35184 ft | 464 kts | 36° |
| 2026-04-28 05:14 | 59.15538 | 69.90503 | 35186 ft | 464 kts | 36° |
| 2026-04-28 05:15 | 59.20506 | 69.98570 | 35188 ft | 465 kts | 35° |
| 2026-04-28 05:15 | 59.25444 | 70.06589 | 35191 ft | 465 kts | 35° |
| 2026-04-28 05:16 | 59.30387 | 70.14605 | 35194 ft | 461 kts | 35° |
| 2026-04-28 05:16 | 59.32776 | 70.18485 | 35092 ft | 442 kts | 34° |
| 2026-04-28 05:16 | 59.35101 | 70.22259 | 34582 ft | 435 kts | 34° |
| 2026-04-28 05:17 | 59.39637 | 70.29603 | 33812 ft | 414 kts | 33° |
| 2026-04-28 05:17 | 59.41851 | 70.33166 | 33418 ft | 406 kts | 33° |
| 2026-04-28 05:17 | 59.43989 | 70.36612 | 33025 ft | 399 kts | 33° |
| 2026-04-28 05:17 | 59.46123 | 70.40050 | 32637 ft | 402 kts | 33° |
| 2026-04-28 05:18 | 59.48283 | 70.43656 | 32326 ft | 419 kts | 36° |
| 2026-04-28 05:18 | 59.50447 | 70.47498 | 31999 ft | 425 kts | 37° |
| 2026-04-28 05:18 | 59.52610 | 70.51427 | 31642 ft | 426 kts | 38° |
| 2026-04-28 05:18 | 59.54784 | 70.55417 | 31280 ft | 424 kts | 38° |
| 2026-04-28 05:19 | 59.56897 | 70.59319 | 30922 ft | 420 kts | 38° |
| 2026-04-28 05:19 | 59.59014 | 70.63229 | 30540 ft | 416 kts | 38° |
| 2026-04-28 05:19 | 59.61105 | 70.67090 | 30141 ft | 412 kts | 39° |
| 2026-04-28 05:19 | 59.63184 | 70.70927 | 29742 ft | 410 kts | 39° |
| 2026-04-28 05:20 | 59.65246 | 70.74734 | 29352 ft | 408 kts | 39° |
| 2026-04-28 05:20 | 59.67301 | 70.78525 | 28971 ft | 406 kts | 39° |
| 2026-04-28 05:20 | 59.69369 | 70.82348 | 28584 ft | 403 kts | 39° |
| 2026-04-28 05:20 | 59.71407 | 70.86105 | 28198 ft | 400 kts | 39° |
| 2026-04-28 05:21 | 59.73431 | 70.89837 | 27806 ft | 398 kts | 39° |
| 2026-04-28 05:21 | 59.75417 | 70.93510 | 27421 ft | 395 kts | 39° |
| 2026-04-28 05:21 | 59.77418 | 70.97191 | 27030 ft | 394 kts | 39° |
| 2026-04-28 05:21 | 59.79411 | 71.00857 | 26636 ft | 391 kts | 39° |
| 2026-04-28 05:22 | 59.81403 | 71.04527 | 26237 ft | 388 kts | 39° |
| 2026-04-28 05:22 | 59.83353 | 71.08110 | 25849 ft | 385 kts | 39° |
| 2026-04-28 05:22 | 59.85300 | 71.11700 | 25460 ft | 383 kts | 39° |
| 2026-04-28 05:22 | 59.87242 | 71.15267 | 25063 ft | 380 kts | 39° |
| 2026-04-28 05:23 | 59.89175 | 71.18819 | 24672 ft | 377 kts | 39° |
| 2026-04-28 05:23 | 59.91077 | 71.22307 | 24286 ft | 375 kts | 39° |
| 2026-04-28 05:23 | 59.92988 | 71.25813 | 23893 ft | 373 kts | 39° |
| 2026-04-28 05:23 | 59.94898 | 71.29314 | 23504 ft | 371 kts | 39° |
| 2026-04-28 05:24 | 59.96769 | 71.32739 | 23122 ft | 369 kts | 39° |
| 2026-04-28 05:24 | 59.98666 | 71.36216 | 22730 ft | 368 kts | 39° |
| 2026-04-28 05:24 | 60.00532 | 71.39629 | 22349 ft | 367 kts | 39° |
| 2026-04-28 05:24 | 60.02399 | 71.43050 | 21964 ft | 365 kts | 39° |
| 2026-04-28 05:25 | 60.04263 | 71.46465 | 21586 ft | 363 kts | 39° |
| 2026-04-28 05:25 | 60.06103 | 71.49828 | 21212 ft | 361 kts | 39° |
| 2026-04-28 05:25 | 60.07954 | 71.53211 | 20820 ft | 359 kts | 39° |
| 2026-04-28 05:25 | 60.09777 | 71.56541 | 20448 ft | 357 kts | 39° |
| 2026-04-28 05:26 | 60.11607 | 71.59879 | 20084 ft | 355 kts | 39° |
| 2026-04-28 05:26 | 60.13417 | 71.63186 | 19706 ft | 354 kts | 39° |
| 2026-04-28 05:26 | 60.15221 | 71.66473 | 19326 ft | 353 kts | 40° |
| 2026-04-28 05:26 | 60.17057 | 71.69817 | 18930 ft | 352 kts | 40° |
| 2026-04-28 05:27 | 60.18841 | 71.73068 | 18556 ft | 350 kts | 40° |
| 2026-04-28 05:27 | 60.20644 | 71.76360 | 18179 ft | 348 kts | 40° |
| 2026-04-28 05:27 | 60.22409 | 71.79572 | 17813 ft | 346 kts | 40° |
| 2026-04-28 05:27 | 60.24182 | 71.82800 | 17437 ft | 344 kts | 40° |
| 2026-04-28 05:28 | 60.25959 | 71.86034 | 17058 ft | 343 kts | 41° |
| 2026-04-28 05:28 | 60.27721 | 71.89236 | 16684 ft | 341 kts | 41° |
| 2026-04-28 05:28 | 60.29463 | 71.92400 | 16300 ft | 339 kts | 41° |
| 2026-04-28 05:28 | 60.31207 | 71.95573 | 15936 ft | 338 kts | 41° |
| 2026-04-28 05:29 | 60.32932 | 71.98708 | 15557 ft | 336 kts | 41° |
| 2026-04-28 05:29 | 60.34651 | 72.01831 | 15184 ft | 334 kts | 41° |
| 2026-04-28 05:29 | 60.36375 | 72.04962 | 14802 ft | 333 kts | 41° |
| 2026-04-28 05:29 | 60.38076 | 72.08045 | 14430 ft | 331 kts | 41° |
| 2026-04-28 05:30 | 60.39787 | 72.11149 | 14053 ft | 329 kts | 41° |
| 2026-04-28 05:30 | 60.41465 | 72.14191 | 13675 ft | 327 kts | 41° |
| 2026-04-28 05:30 | 60.43154 | 72.17248 | 13307 ft | 326 kts | 41° |
| 2026-04-28 05:30 | 60.44836 | 72.20298 | 12931 ft | 324 kts | 41° |
| 2026-04-28 05:31 | 60.46499 | 72.23312 | 12555 ft | 321 kts | 41° |
| 2026-04-28 05:31 | 60.48150 | 72.26305 | 12177 ft | 320 kts | 41° |
| 2026-04-28 05:31 | 60.49809 | 72.29306 | 11811 ft | 319 kts | 41° |
| 2026-04-28 05:31 | 60.51449 | 72.32272 | 11439 ft | 317 kts | 41° |
| 2026-04-28 05:32 | 60.53080 | 72.35223 | 11066 ft | 315 kts | 41° |
| 2026-04-28 05:32 | 60.54718 | 72.38176 | 10695 ft | 313 kts | 41° |
| 2026-04-28 05:32 | 60.56343 | 72.41112 | 10320 ft | 311 kts | 41° |
| 2026-04-28 05:32 | 60.57921 | 72.43955 | 10198 ft | 304 kts | 41° |
| 2026-04-28 05:33 | 60.59506 | 72.46817 | 10227 ft | 305 kts | 41° |
| 2026-04-28 05:33 | 60.61088 | 72.49670 | 10212 ft | 308 kts | 41° |
| 2026-04-28 05:33 | 60.62691 | 72.52563 | 10214 ft | 308 kts | 40° |
| 2026-04-28 05:33 | 60.64310 | 72.55480 | 10224 ft | 310 kts | 40° |
| 2026-04-28 05:34 | 60.65900 | 72.58350 | 10222 ft | 310 kts | 40° |
| 2026-04-28 05:34 | 60.67514 | 72.61253 | 10198 ft | 310 kts | 40° |
| 2026-04-28 05:34 | 60.69120 | 72.64143 | 10211 ft | 310 kts | 40° |
| 2026-04-28 05:34 | 60.70729 | 72.67036 | 10227 ft | 309 kts | 41° |
| 2026-04-28 05:35 | 60.72340 | 72.69930 | 10210 ft | 309 kts | 41° |
| 2026-04-28 05:35 | 60.73949 | 72.72826 | 10201 ft | 309 kts | 41° |
| 2026-04-28 05:35 | 60.75526 | 72.75763 | 10210 ft | 309 kts | 49° |
| 2026-04-28 05:35 | 60.76443 | 72.79653 | 10143 ft | 304 kts | 84° |
| 2026-04-28 05:36 | 60.76216 | 72.83805 | 10215 ft | 295 kts | 116° |
| 2026-04-28 05:36 | 60.75019 | 72.87046 | 10200 ft | 283 kts | 148° |
| 2026-04-28 05:36 | 60.73241 | 72.88405 | 10220 ft | 274 kts | 179° |
| 2026-04-28 05:36 | 60.71439 | 72.87569 | 10195 ft | 267 kts | 211° |
| 2026-04-28 05:37 | 60.69975 | 72.85282 | 10240 ft | 266 kts | 223° |
| 2026-04-28 05:37 | 60.68722 | 72.82555 | 10237 ft | 265 kts | 229° |
| 2026-04-28 05:37 | 60.67588 | 72.79610 | 10221 ft | 265 kts | 232° |
| 2026-04-28 05:37 | 60.66516 | 72.76559 | 10212 ft | 264 kts | 234° |
| 2026-04-28 05:38 | 60.65481 | 72.73458 | 10206 ft | 265 kts | 235° |
| 2026-04-28 05:38 | 60.64467 | 72.70337 | 10224 ft | 265 kts | 238° |
| 2026-04-28 05:38 | 60.63996 | 72.66753 | 10150 ft | 271 kts | 271° |
| 2026-04-28 05:38 | 60.64684 | 72.63151 | 10222 ft | 283 kts | 303° |
| 2026-04-28 05:39 | 60.66271 | 72.60731 | 10222 ft | 296 kts | 335° |
| 2026-04-28 05:39 | 60.68310 | 72.60294 | 10213 ft | 305 kts | 7° |
| 2026-04-28 05:39 | 60.70248 | 72.62050 | 10203 ft | 310 kts | 38° |
| 2026-04-28 05:39 | 60.71728 | 72.65228 | 10259 ft | 308 kts | 51° |
| 2026-04-28 05:40 | 60.72997 | 72.68700 | 10215 ft | 310 kts | 56° |
| 2026-04-28 05:40 | 60.74201 | 72.72340 | 10209 ft | 308 kts | 57° |
| 2026-04-28 05:40 | 60.75375 | 72.76012 | 10235 ft | 308 kts | 58° |
| 2026-04-28 05:40 | 60.76215 | 72.79926 | 10150 ft | 305 kts | 85° |
| 2026-04-28 05:41 | 60.75925 | 72.84071 | 10205 ft | 293 kts | 118° |
| 2026-04-28 05:41 | 60.74687 | 72.87169 | 10212 ft | 281 kts | 150° |
| 2026-04-28 05:41 | 60.72872 | 72.88379 | 10220 ft | 272 kts | 182° |
| 2026-04-28 05:41 | 60.71117 | 72.87369 | 10203 ft | 265 kts | 213° |
| 2026-04-28 05:42 | 60.69713 | 72.84962 | 10242 ft | 265 kts | 225° |
| 2026-04-28 05:42 | 60.68505 | 72.82174 | 10228 ft | 264 kts | 231° |
| 2026-04-28 05:42 | 60.67398 | 72.79192 | 10216 ft | 265 kts | 233° |
| 2026-04-28 05:42 | 60.66341 | 72.76115 | 10212 ft | 264 kts | 234° |
| 2026-04-28 05:43 | 60.65331 | 72.73048 | 10208 ft | 264 kts | 236° |
| 2026-04-28 05:43 | 60.64333 | 72.69891 | 10212 ft | 266 kts | 241° |
| 2026-04-28 05:43 | 60.64032 | 72.66225 | 10158 ft | 273 kts | 276° |
| 2026-04-28 05:43 | 60.64868 | 72.62746 | 10217 ft | 285 kts | 308° |
| 2026-04-28 05:44 | 60.66575 | 72.60568 | 10216 ft | 297 kts | 340° |
| 2026-04-28 05:44 | 60.68622 | 72.60473 | 10206 ft | 307 kts | 12° |
| 2026-04-28 05:44 | 60.70501 | 72.62551 | 10205 ft | 309 kts | 42° |
| 2026-04-28 05:44 | 60.71920 | 72.65757 | 10253 ft | 309 kts | 52° |
| 2026-04-28 05:45 | 60.73191 | 72.69289 | 10219 ft | 309 kts | 56° |
| 2026-04-28 05:45 | 60.74397 | 72.72953 | 10205 ft | 309 kts | 58° |
| 2026-04-28 05:45 | 60.75559 | 72.76605 | 10227 ft | 309 kts | 59° |
| 2026-04-28 05:45 | 60.76246 | 72.80659 | 10138 ft | 302 kts | 91° |
| 2026-04-28 05:46 | 60.75764 | 72.84717 | 10208 ft | 290 kts | 124° |
| 2026-04-28 05:46 | 60.74394 | 72.87527 | 10213 ft | 279 kts | 156° |
| 2026-04-28 05:46 | 60.72572 | 72.88345 | 10212 ft | 269 kts | 188° |
| 2026-04-28 05:46 | 60.70876 | 72.87008 | 10214 ft | 264 kts | 216° |
| 2026-04-28 05:47 | 60.69517 | 72.84528 | 10237 ft | 264 kts | 226° |
| 2026-04-28 05:47 | 60.68317 | 72.81673 | 10218 ft | 264 kts | 231° |
| 2026-04-28 05:47 | 60.67218 | 72.78677 | 10213 ft | 265 kts | 233° |
| 2026-04-28 05:47 | 60.66172 | 72.75610 | 10217 ft | 264 kts | 235° |
| 2026-04-28 05:48 | 60.65155 | 72.72491 | 10211 ft | 265 kts | 236° |
| 2026-04-28 05:48 | 60.64203 | 72.69316 | 10194 ft | 266 kts | 246° |
| 2026-04-28 05:48 | 60.64107 | 72.65574 | 10173 ft | 275 kts | 282° |
| 2026-04-28 05:48 | 60.65111 | 72.62247 | 10208 ft | 288 kts | 313° |
| 2026-04-28 05:49 | 60.66903 | 72.60380 | 10208 ft | 300 kts | 345° |
| 2026-04-28 05:49 | 60.68993 | 72.60638 | 10206 ft | 309 kts | 17° |
| 2026-04-28 05:49 | 60.70792 | 72.63007 | 10215 ft | 309 kts | 45° |
| 2026-04-28 05:49 | 60.72176 | 72.66344 | 10248 ft | 309 kts | 53° |
| 2026-04-28 05:50 | 60.73419 | 72.69922 | 10210 ft | 309 kts | 57° |
| 2026-04-28 05:50 | 60.74594 | 72.73542 | 10211 ft | 308 kts | 58° |
| 2026-04-28 05:50 | 60.75747 | 72.77224 | 10213 ft | 309 kts | 62° |
| 2026-04-28 05:50 | 60.76239 | 72.81390 | 10156 ft | 300 kts | 97° |
| 2026-04-28 05:51 | 60.75587 | 72.85278 | 10209 ft | 290 kts | 129° |
| 2026-04-28 05:51 | 60.74099 | 72.87818 | 10216 ft | 278 kts | 161° |
| 2026-04-28 05:51 | 60.72253 | 72.88280 | 10205 ft | 268 kts | 193° |
| 2026-04-28 05:51 | 60.70610 | 72.86639 | 10228 ft | 262 kts | 219° |
| 2026-04-28 05:52 | 60.69295 | 72.84080 | 10233 ft | 264 kts | 227° |
| 2026-04-28 05:52 | 60.68136 | 72.81222 | 10232 ft | 263 kts | 232° |
| 2026-04-28 05:52 | 60.67047 | 72.78194 | 10219 ft | 264 kts | 233° |
| 2026-04-28 05:52 | 60.66020 | 72.75147 | 10212 ft | 263 kts | 235° |
| 2026-04-28 05:53 | 60.65006 | 72.72026 | 10218 ft | 264 kts | 235° |
| 2026-04-28 05:53 | 60.64108 | 72.68782 | 10178 ft | 267 kts | 251° |
| 2026-04-28 05:53 | 60.64188 | 72.65005 | 10179 ft | 277 kts | 286° |
| 2026-04-28 05:53 | 60.65327 | 72.61829 | 10208 ft | 290 kts | 317° |
| 2026-04-28 05:54 | 60.67199 | 72.60238 | 10214 ft | 301 kts | 349° |
| 2026-04-28 05:54 | 60.69277 | 72.60815 | 10207 ft | 308 kts | 22° |
| 2026-04-28 05:54 | 60.70986 | 72.63396 | 10222 ft | 308 kts | 47° |
| 2026-04-28 05:54 | 60.72350 | 72.66811 | 10242 ft | 309 kts | 54° |
| 2026-04-28 05:55 | 60.73566 | 72.70361 | 10212 ft | 309 kts | 57° |
| 2026-04-28 05:55 | 60.74752 | 72.74037 | 10219 ft | 309 kts | 58° |
| 2026-04-28 05:55 | 60.75877 | 72.77735 | 10205 ft | 309 kts | 66° |
| 2026-04-28 05:55 | 60.76209 | 72.81940 | 10173 ft | 299 kts | 102° |
| 2026-04-28 05:56 | 60.75418 | 72.85750 | 10223 ft | 288 kts | 134° |
| 2026-04-28 05:56 | 60.73868 | 72.88163 | 10240 ft | 280 kts | 153° |
| 2026-04-28 05:56 | 60.72529 | 72.91099 | 10177 ft | 294 kts | 118° |
| 2026-04-28 05:56 | 60.72197 | 72.95218 | 10011 ft | 305 kts | 87° |
| 2026-04-28 05:57 | 60.72937 | 72.99262 | 9743 ft | 309 kts | 54° |
| 2026-04-28 05:57 | 60.74519 | 73.02123 | 9522 ft | 305 kts | 33° |
| 2026-04-28 05:57 | 60.76275 | 73.04460 | 9284 ft | 304 kts | 31° |
| 2026-04-28 05:57 | 60.78043 | 73.06721 | 8999 ft | 298 kts | 30° |
| 2026-04-28 05:58 | 60.79794 | 73.08953 | 8652 ft | 294 kts | 30° |
| 2026-04-28 05:58 | 60.81502 | 73.11134 | 8326 ft | 290 kts | 30° |
| 2026-04-28 05:58 | 60.83201 | 73.13301 | 7990 ft | 287 kts | 30° |
| 2026-04-28 05:58 | 60.84893 | 73.15457 | 7667 ft | 283 kts | 30° |
| 2026-04-28 05:59 | 60.86546 | 73.17569 | 7371 ft | 279 kts | 30° |
| 2026-04-28 05:59 | 60.88176 | 73.19656 | 7108 ft | 275 kts | 30° |
| 2026-04-28 05:59 | 60.89794 | 73.21729 | 6859 ft | 277 kts | 30° |
| 2026-04-28 05:59 | 60.91438 | 73.23839 | 6615 ft | 278 kts | 30° |
| 2026-04-28 06:00 | 60.93058 | 73.25919 | 6373 ft | 278 kts | 30° |
| 2026-04-28 06:00 | 60.94702 | 73.28032 | 6119 ft | 277 kts | 30° |
| 2026-04-28 06:00 | 60.96309 | 73.30098 | 5890 ft | 275 kts | 30° |
| 2026-04-28 06:00 | 60.97938 | 73.32194 | 5683 ft | 274 kts | 30° |
| 2026-04-28 06:01 | 60.99529 | 73.34248 | 5465 ft | 273 kts | 30° |
| 2026-04-28 06:01 | 60.99726 | 73.34503 | 5451 ft | 273 kts | 30° |
| 2026-04-28 06:01 | 61.01137 | 73.36326 | 5273 ft | 273 kts | 30° |
| 2026-04-28 06:01 | 61.02744 | 73.38406 | 5104 ft | 273 kts | 30° |
| 2026-04-28 06:02 | 61.04345 | 73.40482 | 4891 ft | 271 kts | 30° |
| 2026-04-28 06:02 | 61.05915 | 73.42522 | 4695 ft | 270 kts | 30° |
| 2026-04-28 06:02 | 61.07507 | 73.44598 | 4504 ft | 268 kts | 30° |
| 2026-04-28 06:02 | 61.09061 | 73.46626 | 4289 ft | 258 kts | 30° |
| 2026-04-28 06:03 | 61.10521 | 73.48535 | 4076 ft | 246 kts | 30° |
| 2026-04-28 06:03 | 61.11901 | 73.50349 | 3964 ft | 224 kts | 29° |
| 2026-04-28 06:03 | 61.13187 | 73.52038 | 3812 ft | 214 kts | 29° |
| 2026-04-28 06:03 | 61.14417 | 73.53651 | 3600 ft | 209 kts | 29° |
| 2026-04-28 06:04 | 61.15634 | 73.55252 | 3398 ft | 204 kts | 29° |
| 2026-04-28 06:04 | 61.16811 | 73.56808 | 3234 ft | 194 kts | 30° |
| 2026-04-28 06:04 | 61.17905 | 73.58263 | 3038 ft | 183 kts | 30° |
| 2026-04-28 06:04 | 61.18946 | 73.59638 | 2835 ft | 176 kts | 30° |
| 2026-04-28 06:05 | 61.19967 | 73.60989 | 2647 ft | 170 kts | 30° |
| 2026-04-28 06:05 | 61.20947 | 73.62282 | 2463 ft | 170 kts | 30° |
| 2026-04-28 06:05 | 61.21946 | 73.63611 | 2325 ft | 171 kts | 31° |
| 2026-04-28 06:05 | 61.22939 | 73.64928 | 2174 ft | 172 kts | 31° |
| 2026-04-28 06:06 | 61.23941 | 73.66264 | 2111 ft | 169 kts | 32° |
| 2026-04-28 06:06 | 61.24894 | 73.67533 | 2116 ft | 158 kts | 31° |
| 2026-04-28 06:06 | 61.25811 | 73.68756 | 2113 ft | 154 kts | 32° |
| 2026-04-28 06:06 | 61.26707 | 73.69952 | 2131 ft | 154 kts | 31° |
| 2026-04-28 06:07 | 61.27607 | 73.71171 | 2092 ft | 155 kts | 32° |
| 2026-04-28 06:07 | 61.28499 | 73.72472 | 2006 ft | 156 kts | 42° |
| 2026-04-28 06:07 | 61.29021 | 73.74398 | 1914 ft | 152 kts | 71° |
| 2026-04-28 06:07 | 61.29722 | 73.75965 | 1900 ft | 154 kts | 22° |
| 2026-04-28 06:08 | 61.30749 | 73.76147 | 1924 ft | 149 kts | 340° |
| 2026-04-28 06:08 | 61.31546 | 73.74980 | 1935 ft | 135 kts | 298° |
| 2026-04-28 06:08 | 61.32026 | 73.73294 | 1937 ft | 132 kts | 290° |
| 2026-04-28 06:08 | 61.32443 | 73.71571 | 1913 ft | 134 kts | 289° |
| 2026-04-28 06:09 | 61.32845 | 73.69856 | 1912 ft | 132 kts | 288° |
| 2026-04-28 06:09 | 61.33252 | 73.68114 | 1915 ft | 134 kts | 289° |
| 2026-04-28 06:09 | 61.33752 | 73.66451 | 1890 ft | 142 kts | 311° |
| 2026-04-28 06:09 | 61.34660 | 73.65546 | 1928 ft | 143 kts | 328° |
| 2026-04-28 06:10 | 61.35269 | 73.64082 | 1905 ft | 130 kts | 280° |
| 2026-04-28 06:10 | 61.35189 | 73.62321 | 1848 ft | 123 kts | 239° |
| 2026-04-28 06:10 | 61.34718 | 73.60853 | 1702 ft | 123 kts | 238° |
| 2026-04-28 06:10 | 61.34542 | 73.59117 | 1555 ft | 127 kts | 260° |
| 2026-04-28 06:11 | 61.34467 | 73.57293 | 1392 ft | 125 kts | 262° |
| 2026-04-28 06:11 | 61.34434 | 73.55465 | 1218 ft | 128 kts | 263° |
| 2026-04-28 06:11 | 61.34418 | 73.53625 | 1062 ft | 128 kts | 264° |
| 2026-04-28 06:11 | 61.34414 | 73.51766 | 876 ft | 132 kts | 264° |
| 2026-04-28 06:12 | 61.34407 | 73.49927 | 703 ft | 127 kts | 264° |
| 2026-04-28 06:12 | 61.34405 | 73.48041 | 529 ft | 128 kts | 266° |
| 2026-04-28 06:12 | 61.34401 | 73.46161 | 369 ft | 129 kts | 267° |
| 2026-04-28 06:12 | 61.34392 | 73.44270 | 169 ft | 135 kts | 267° |
| 2026-04-28 06:13 | 61.34400 | 73.42411 | 19 ft | 123 kts | 267° |
| 2026-04-28 06:13 | 61.34391 | 73.41074 | 8 ft | 51 kts | 271° |
| 2026-04-28 06:13 | 61.34385 | 73.40562 | 8 ft | 21 kts | 268° |
| 2026-04-28 06:13 | 61.34377 | 73.40253 | 8 ft | 15 kts | 246° |
| 2026-04-28 06:14 | 61.34261 | 73.40198 | 8 ft | 21 kts | 180° |
| 2026-04-28 06:14 | 61.34179 | 73.40378 | 8 ft | 22 kts | 89° |
| 2026-04-28 06:14 | 61.34181 | 73.40746 | 8 ft | 26 kts | 89° |
| 2026-04-28 06:14 | 61.34168 | 73.40979 | 8 ft | 6 kts | 167° |
| 2026-04-28 06:15 | 61.34123 | 73.40980 | 8 ft | 6 kts | 186° |
| 2026-04-28 06:15 | 61.34099 | 73.40938 | 8 ft | 4 kts | 254° |
| 2026-04-28 06:15 | 61.34096 | 73.40886 | 8 ft | 0 kts | 267° |